createdAt,value
2022-10-14T00:01:35.542Z,19.90
2022-10-14T00:04:02.041Z,16.07
2022-10-14T00:06:29.693Z,20.37
2022-10-14T00:08:56.663Z,18.07
2022-10-14T00:11:28.456Z,20.73
2022-10-14T00:13:56.602Z,18.67
2022-10-14T00:16:25.757Z,19.83
2022-10-14T00:18:52.261Z,18.67
2022-10-14T00:21:18.735Z,21.00
2022-10-14T00:23:45.608Z,19.07
2022-10-14T00:26:22.716Z,16.00
2022-10-14T00:28:49.185Z,21.47
2022-10-14T00:31:16.178Z,19.60
2022-10-14T00:33:45.199Z,21.37
2022-10-14T00:36:12.916Z,17.40
2022-10-14T00:38:39.866Z,19.00
2022-10-14T00:41:07.094Z,18.83
2022-10-14T00:43:51.440Z,19.53
2022-10-14T00:46:18.236Z,22.40
2022-10-14T00:48:44.749Z,20.30
2022-10-14T00:51:11.538Z,17.73
2022-10-14T00:53:39.737Z,18.63
2022-10-14T00:56:07.610Z,20.77
2022-10-14T00:58:34.015Z,19.20
2022-10-14T01:01:00.568Z,23.37
2022-10-14T01:03:27.084Z,22.73
2022-10-14T01:05:57.370Z,21.03
2022-10-14T01:08:26.914Z,18.90
2022-10-14T01:10:59.404Z,23.27
2022-10-14T01:13:33.046Z,21.60
2022-10-14T01:16:17.070Z,17.87
2022-10-14T01:19:06.161Z,26.20
2022-10-14T01:21:42.421Z,23.17
2022-10-14T01:24:20.780Z,21.50
2022-10-14T01:26:59.409Z,18.37
2022-10-14T01:29:25.829Z,21.53
2022-10-14T01:31:57.991Z,25.50
2022-10-14T01:34:27.436Z,21.63
2022-10-14T01:36:57.810Z,27.50
2022-10-14T01:39:26.475Z,21.40
2022-10-14T01:41:55.976Z,27.30
2022-10-14T01:44:24.073Z,21.67
2022-10-14T01:46:52.301Z,22.00
2022-10-14T01:49:23.580Z,22.67
2022-10-14T01:51:57.040Z,20.90
2022-10-14T01:54:26.448Z,18.87
2022-10-14T01:56:54.196Z,21.73
2022-10-14T01:59:22.509Z,26.10
2022-10-14T02:01:49.065Z,23.83
2022-10-14T02:04:16.566Z,19.30
2022-10-14T02:06:46.945Z,21.27
2022-10-14T02:09:22.577Z,21.70
2022-10-14T02:12:15.287Z,21.70
2022-10-14T02:14:45.213Z,19.57
2022-10-14T02:17:17.639Z,20.00
2022-10-14T02:19:49.459Z,20.87
2022-10-14T02:22:20.640Z,19.57
2022-10-14T02:24:51.571Z,22.37
2022-10-14T02:27:19.318Z,21.40
2022-10-14T02:29:47.287Z,22.33
2022-10-14T02:32:15.296Z,28.20
2022-10-14T02:34:41.987Z,23.43
2022-10-14T02:37:10.310Z,19.13
2022-10-14T02:39:39.036Z,21.10
2022-10-14T02:42:06.319Z,23.83
2022-10-14T02:44:34.111Z,24.73
2022-10-14T02:47:00.786Z,23.50
2022-10-14T02:49:29.490Z,26.10
2022-10-14T02:51:55.949Z,24.30
2022-10-14T02:54:22.457Z,24.80
2022-10-14T02:56:48.874Z,22.43
2022-10-14T02:59:15.382Z,21.47
2022-10-14T03:01:42.479Z,21.33
2022-10-14T03:04:10.240Z,21.17
2022-10-14T03:06:36.814Z,25.97
2022-10-14T03:09:03.347Z,23.03
2022-10-14T03:11:33.925Z,22.37
2022-10-14T03:14:04.851Z,25.03
2022-10-14T03:16:31.804Z,21.87
2022-10-14T03:18:58.359Z,18.77
2022-10-14T03:21:39.196Z,20.17
2022-10-14T03:24:09.720Z,22.03
2022-10-14T03:26:37.495Z,20.27
2022-10-14T03:29:03.959Z,21.90
2022-10-14T03:31:51.051Z,23.13
2022-10-14T03:34:30.980Z,21.50
2022-10-14T03:37:09.398Z,25.43
2022-10-14T03:39:44.959Z,22.70
2022-10-14T03:42:12.734Z,20.97
2022-10-14T03:44:46.205Z,19.23
2022-10-14T03:47:20.537Z,23.40
2022-10-14T03:49:47.522Z,20.53
2022-10-14T03:52:22.091Z,24.30
2022-10-14T03:54:59.563Z,19.37
2022-10-14T03:57:27.141Z,19.60
2022-10-14T03:59:56.850Z,20.07
2022-10-14T04:02:29.273Z,22.80
2022-10-14T04:05:00.880Z,19.93
2022-10-14T04:07:27.908Z,20.57
2022-10-14T04:09:57.291Z,17.87
2022-10-14T04:12:24.455Z,19.33
2022-10-14T04:14:59.196Z,19.13
2022-10-14T04:17:30.022Z,17.70
2022-10-14T04:20:01.938Z,19.87
2022-10-14T04:22:30.031Z,21.40
2022-10-14T04:24:56.437Z,18.30
2022-10-14T04:27:23.117Z,18.43
2022-10-14T04:30:00.451Z,17.17
2022-10-14T04:32:35.392Z,18.33
2022-10-14T04:35:05.444Z,18.10
2022-10-14T04:37:32.114Z,17.33
2022-10-14T04:40:11.925Z,18.93
2022-10-14T04:42:43.994Z,21.20
2022-10-14T04:45:19.788Z,20.83
2022-10-14T04:47:52.669Z,22.77
2022-10-14T04:50:22.610Z,23.97
2022-10-14T04:53:10.680Z,20.27
2022-10-14T04:55:49.503Z,17.50
2022-10-14T04:58:17.286Z,17.57
2022-10-14T05:00:46.616Z,18.97
2022-10-14T05:03:27.168Z,19.47
2022-10-14T05:05:53.576Z,19.83
2022-10-14T05:08:20.706Z,20.07
2022-10-14T05:10:50.949Z,17.60
2022-10-14T05:13:31.694Z,19.00
2022-10-14T05:16:03.242Z,19.20
2022-10-14T05:18:30.258Z,20.60
2022-10-14T05:21:01.334Z,21.20
2022-10-14T05:23:42.106Z,18.70
2022-10-14T05:26:10.748Z,19.67
2022-10-14T05:28:38.812Z,19.93
2022-10-14T05:31:06.070Z,18.50
2022-10-14T05:33:37.384Z,20.10
2022-10-14T05:36:04.419Z,23.10
2022-10-14T05:38:34.210Z,17.37
2022-10-14T05:41:02.094Z,18.13
2022-10-14T05:43:32.413Z,20.63
2022-10-14T05:46:01.166Z,16.93
2022-10-14T05:48:30.506Z,18.83
2022-10-14T05:51:01.508Z,21.17
2022-10-14T05:53:29.064Z,18.63
2022-10-14T05:56:01.385Z,19.20
2022-10-14T05:58:27.898Z,18.23
2022-10-14T06:00:55.173Z,19.33
2022-10-14T06:03:21.782Z,19.23
2022-10-14T06:05:49.669Z,20.00
2022-10-14T06:08:16.356Z,17.33
2022-10-14T06:10:43.864Z,17.97
2022-10-14T06:13:10.262Z,16.10
2022-10-14T06:15:38.546Z,17.17
2022-10-14T06:18:05.605Z,16.17
2022-10-14T06:20:32.721Z,19.30
2022-10-14T06:22:59.775Z,18.77
2022-10-14T06:25:26.681Z,16.43
2022-10-14T06:27:53.091Z,16.83
2022-10-14T06:30:19.833Z,16.03
2022-10-14T06:32:46.291Z,21.47
2022-10-14T06:35:13.267Z,16.20
2022-10-14T06:37:39.677Z,17.03
2022-10-14T06:40:06.215Z,18.37
2022-10-14T06:42:33.950Z,16.53
2022-10-14T06:45:00.388Z,17.47
2022-10-14T06:47:26.750Z,17.00
2022-10-14T06:49:53.236Z,16.53
2022-10-14T06:52:19.807Z,16.53
2022-10-14T06:54:48.419Z,17.03
2022-10-14T06:57:15.420Z,17.27
2022-10-14T06:59:41.815Z,16.53
2022-10-14T07:02:08.967Z,17.30
2022-10-14T07:04:35.456Z,19.97
2022-10-14T07:07:02.980Z,16.67
2022-10-14T07:09:29.459Z,16.40
2022-10-14T07:11:56.095Z,16.17
2022-10-14T07:14:22.606Z,20.57
2022-10-14T07:16:49.061Z,18.20
2022-10-14T07:19:15.794Z,20.77
2022-10-14T07:21:42.946Z,17.33
2022-10-14T07:24:09.502Z,16.40
2022-10-14T07:26:35.967Z,16.30
2022-10-14T07:29:04.019Z,17.73
2022-10-14T07:31:30.947Z,15.40
2022-10-14T07:33:57.594Z,17.77
2022-10-14T07:36:24.086Z,17.33
2022-10-14T07:38:50.489Z,23.33
2022-10-14T07:41:22.662Z,17.47
2022-10-14T07:43:51.157Z,19.77
2022-10-14T07:46:28.303Z,16.43
2022-10-14T07:48:58.853Z,17.37
2022-10-14T07:51:25.880Z,18.77
2022-10-14T07:53:53.216Z,15.67
2022-10-14T07:56:20.068Z,16.30
2022-10-14T07:58:46.679Z,17.93
2022-10-14T08:01:15.388Z,18.57
2022-10-14T08:03:46.055Z,23.10
2022-10-14T08:06:12.908Z,18.10
2022-10-14T08:08:39.946Z,19.37
2022-10-14T08:11:09.194Z,19.93
2022-10-14T08:13:36.020Z,17.30
2022-10-14T08:16:02.460Z,20.93
2022-10-14T08:18:29.252Z,24.27
2022-10-14T08:20:55.779Z,23.67
2022-10-14T08:23:22.282Z,22.97
2022-10-14T08:25:49.342Z,19.93
2022-10-14T08:28:15.884Z,23.83
2022-10-14T08:30:42.471Z,20.27
2022-10-14T08:33:08.954Z,19.27
2022-10-14T08:35:35.462Z,24.23
2022-10-14T08:38:02.117Z,23.23
2022-10-14T08:40:29.992Z,20.70
2022-10-14T08:43:01.802Z,23.67
2022-10-14T08:45:39.099Z,18.60
2022-10-14T08:48:10.817Z,21.77
2022-10-14T08:50:43.125Z,20.77
2022-10-14T08:53:14.951Z,24.17
2022-10-14T08:55:43.950Z,23.17
2022-10-14T08:58:13.328Z,19.23
2022-10-14T09:00:45.039Z,23.40
2022-10-14T09:03:15.314Z,21.03
2022-10-14T09:05:42.313Z,24.83
2022-10-14T09:08:12.648Z,21.43
2022-10-14T09:10:40.730Z,19.60
2022-10-14T09:13:18.840Z,19.87
2022-10-14T09:15:48.092Z,16.60
2022-10-14T09:18:14.488Z,18.47
2022-10-14T09:20:41.312Z,16.63
2022-10-14T09:23:20.966Z,24.53
2022-10-14T09:25:56.591Z,16.50
2022-10-14T09:28:27.399Z,20.33
2022-10-14T09:30:53.803Z,16.77
2022-10-14T09:33:21.146Z,14.23
2022-10-14T09:35:48.352Z,16.67
2022-10-14T09:38:15.425Z,17.17
2022-10-14T09:40:45.962Z,14.47
2022-10-14T09:43:17.095Z,14.53
2022-10-14T09:45:58.492Z,16.47
2022-10-14T09:48:24.982Z,18.33
2022-10-14T09:50:54.045Z,17.47
2022-10-14T09:53:32.105Z,13.60
2022-10-14T09:55:59.829Z,22.50
2022-10-14T09:58:46.529Z,14.70
2022-10-14T10:01:20.870Z,13.93
2022-10-14T10:03:48.490Z,15.20
2022-10-14T10:06:20.204Z,13.30
2022-10-14T10:08:52.626Z,12.63
2022-10-14T10:11:29.570Z,13.27
2022-10-14T10:13:56.327Z,18.03
2022-10-14T10:16:22.783Z,16.00
2022-10-14T10:18:49.764Z,13.47
2022-10-14T10:21:24.641Z,12.07
2022-10-14T10:23:53.087Z,11.97
2022-10-14T10:26:26.064Z,12.17
2022-10-14T10:28:53.603Z,17.13
2022-10-14T10:34:28.860Z,12.53
2022-10-14T10:37:04.004Z,12.27
2022-10-14T10:39:49.066Z,11.57
2022-10-14T10:42:27.097Z,14.37
2022-10-14T10:45:16.149Z,10.83
2022-10-14T10:48:01.268Z,11.33
2022-10-14T10:50:42.147Z,11.33
2022-10-14T10:53:23.343Z,11.23
2022-10-14T10:56:04.342Z,13.47
2022-10-14T10:58:41.292Z,11.43
2022-10-14T11:01:21.354Z,12.60
2022-10-14T11:03:53.764Z,12.53
2022-10-14T11:06:43.003Z,10.30
2022-10-14T11:09:34.609Z,10.57
2022-10-14T11:12:16.394Z,9.60
2022-10-14T11:15:01.053Z,10.90
2022-10-14T11:17:36.881Z,9.60
2022-10-14T11:20:10.467Z,10.35
2022-10-14T11:22:38.625Z,10.00
2022-10-14T11:25:14.265Z,12.80
2022-10-14T11:27:45.573Z,12.80
2022-10-14T11:30:32.580Z,10.60
2022-10-14T11:33:17.904Z,10.17
2022-10-14T11:35:50.965Z,8.80
2022-10-14T11:38:28.621Z,9.10
2022-10-14T11:41:00.903Z,9.30
2022-10-14T11:43:38.194Z,12.37
2022-10-14T11:46:09.181Z,9.10
2022-10-14T11:48:38.921Z,9.03
2022-10-14T11:51:08.599Z,9.57
2022-10-14T11:53:58.148Z,11.47
2022-10-14T11:56:42.383Z,8.87
2022-10-14T11:59:27.705Z,9.20
2022-10-14T12:02:03.005Z,8.90
2022-10-14T12:04:35.477Z,10.97
2022-10-14T12:07:14.535Z,9.33
2022-10-14T12:09:47.492Z,8.37
2022-10-14T12:12:15.362Z,11.07
2022-10-14T12:14:50.166Z,9.47
2022-10-14T12:17:35.399Z,8.30
2022-10-14T12:20:07.589Z,7.50
2022-10-14T12:22:34.960Z,7.87
2022-10-14T12:25:03.508Z,7.03
2022-10-14T12:27:30.910Z,6.97
2022-10-14T12:29:58.863Z,8.70
2022-10-14T12:32:30.759Z,7.07
2022-10-14T12:34:59.035Z,8.87
2022-10-14T12:37:35.470Z,7.90
2022-10-14T12:40:02.245Z,9.20
2022-10-14T12:42:30.585Z,9.37
2022-10-14T12:44:58.066Z,9.17
2022-10-14T12:47:30.966Z,9.43
2022-10-14T12:49:58.740Z,8.50
2022-10-14T12:52:27.029Z,7.27
2022-10-14T12:54:54.101Z,8.10
2022-10-14T12:57:28.751Z,7.93
2022-10-14T12:59:56.887Z,8.10
2022-10-14T13:02:43.433Z,8.53
2022-10-14T13:05:26.372Z,9.50
2022-10-14T13:08:14.738Z,9.03
2022-10-14T13:10:47.369Z,8.17
2022-10-14T13:13:32.491Z,8.13
2022-10-14T13:15:59.672Z,7.80
2022-10-14T13:18:33.070Z,8.30
2022-10-14T13:20:59.515Z,8.50
2022-10-14T13:23:31.920Z,6.60
2022-10-14T13:26:17.879Z,7.77
2022-10-14T13:28:47.241Z,8.57
2022-10-14T13:31:23.855Z,8.03
2022-10-14T13:33:55.559Z,9.70
2022-10-14T13:36:24.074Z,10.80
2022-10-14T13:38:55.128Z,7.40
2022-10-14T13:41:28.338Z,8.30
2022-10-14T13:43:58.848Z,8.33
2022-10-14T13:46:31.250Z,8.93
2022-10-14T13:48:59.569Z,7.07
2022-10-14T13:51:43.135Z,6.83
2022-10-14T13:54:15.718Z,8.43
2022-10-14T13:56:42.608Z,6.47
2022-10-14T13:59:43.730Z,6.60
2022-10-14T14:02:19.199Z,9.10
2022-10-14T14:04:51.656Z,6.93
2022-10-14T14:08:08.017Z,8.00
2022-10-14T14:10:08.073Z,7.10
2022-10-14T14:12:34.597Z,6.00
2022-10-14T14:15:01.202Z,5.40
2022-10-14T14:17:31.062Z,5.20
2022-10-14T14:19:57.491Z,6.17
2022-10-14T14:22:27.143Z,6.30
2022-10-14T14:25:31.967Z,8.23
2022-10-14T14:27:56.752Z,6.77
2022-10-14T14:30:23.204Z,6.93
2022-10-14T14:32:49.701Z,7.33
2022-10-14T14:35:22.035Z,6.30
2022-10-14T14:37:57.006Z,6.30
2022-10-14T14:40:28.247Z,6.87
2022-10-14T14:42:57.608Z,7.13
2022-10-14T14:45:29.156Z,6.53
2022-10-14T14:47:57.098Z,8.17
2022-10-14T14:50:44.037Z,7.50
2022-10-14T14:53:11.689Z,8.73
2022-10-14T14:55:40.551Z,8.87
2022-10-14T14:58:21.057Z,8.23
2022-10-14T15:00:47.547Z,8.37
2022-10-14T15:03:14.043Z,9.17
2022-10-14T15:05:40.565Z,8.70
2022-10-14T15:08:14.320Z,10.17
2022-10-14T15:10:46.135Z,9.63
2022-10-14T15:13:24.291Z,8.77
2022-10-14T15:15:54.211Z,8.80
2022-10-14T15:18:24.410Z,9.97
2022-10-14T15:20:50.987Z,8.47
2022-10-14T15:23:49.760Z,9.10
2022-10-14T15:26:22.005Z,9.33
2022-10-14T15:29:08.254Z,8.67
2022-10-14T15:31:35.589Z,8.13
2022-10-14T15:34:02.262Z,8.97
2022-10-14T15:36:30.652Z,9.53
2022-10-14T15:38:58.527Z,9.47
2022-10-14T15:41:29.732Z,11.43
2022-10-14T15:43:56.286Z,11.90
2022-10-14T15:46:41.568Z,9.73
2022-10-14T15:49:15.416Z,10.10
2022-10-14T15:51:42.285Z,9.23
2022-10-14T15:54:10.751Z,8.93
2022-10-14T15:56:39.172Z,12.30
2022-10-14T15:59:05.728Z,10.50
2022-10-14T16:01:34.539Z,11.30
2022-10-14T16:04:01.394Z,11.87
2022-10-14T16:06:29.475Z,11.67
2022-10-14T16:08:56.468Z,11.30
2022-10-14T16:11:23.992Z,10.90
2022-10-14T16:13:50.415Z,13.23
2022-10-14T16:16:21.126Z,12.33
2022-10-14T16:18:47.560Z,9.97
2022-10-14T16:21:15.952Z,9.57
2022-10-14T16:23:43.449Z,8.47
2022-10-14T16:26:10.148Z,10.20
2022-10-14T16:28:36.772Z,8.00
2022-10-14T16:31:03.226Z,8.33
2022-10-14T16:33:29.668Z,8.13
2022-10-14T16:35:57.113Z,8.77
2022-10-14T16:38:24.261Z,9.50
2022-10-14T16:40:57.242Z,8.87
2022-10-14T16:43:24.543Z,13.30
2022-10-14T16:45:51.156Z,10.30
2022-10-14T16:48:19.293Z,11.13
2022-10-14T16:50:53.154Z,11.43
2022-10-14T16:53:38.914Z,10.87
2022-10-14T16:56:25.786Z,12.40
2022-10-14T16:58:52.266Z,12.60
2022-10-14T17:01:18.760Z,12.47
2022-10-14T17:03:45.213Z,12.03
2022-10-14T17:06:11.852Z,12.83
2022-10-14T17:08:41.050Z,12.37
2022-10-14T17:11:10.643Z,15.20
2022-10-14T17:13:37.041Z,12.93
2022-10-14T17:16:04.585Z,11.23
2022-10-14T17:18:34.678Z,11.77
2022-10-14T17:21:02.380Z,13.87
2022-10-14T17:23:30.922Z,13.27
2022-10-14T17:25:58.191Z,17.97
2022-10-14T17:28:25.517Z,16.00
2022-10-14T17:30:52.427Z,22.30
2022-10-14T17:33:18.998Z,17.93
2022-10-14T17:35:45.496Z,20.53
2022-10-14T17:38:11.981Z,22.10
2022-10-14T17:40:38.418Z,16.73
2022-10-14T17:43:04.897Z,16.57
2022-10-14T17:45:31.281Z,19.97
2022-10-14T17:47:57.787Z,18.63
2022-10-14T17:50:26.382Z,18.00
2022-10-14T17:52:52.932Z,21.77
2022-10-14T17:55:19.462Z,20.90
2022-10-14T17:57:47.467Z,18.20
2022-10-14T18:00:13.981Z,22.13
2022-10-14T18:02:40.438Z,20.40
2022-10-14T18:05:07.265Z,20.70
2022-10-14T18:07:37.507Z,21.67
2022-10-14T18:10:04.678Z,23.03
2022-10-14T18:12:31.404Z,24.93
2022-10-14T18:14:57.945Z,23.80
2022-10-14T18:17:24.773Z,29.53
2022-10-14T18:19:52.482Z,27.73
2022-10-14T18:22:19.149Z,27.87
2022-10-14T18:24:45.695Z,35.93
2022-10-14T18:27:12.329Z,26.67
2022-10-14T18:29:38.858Z,47.90
2022-10-14T18:32:05.399Z,44.90
2022-10-14T18:34:32.046Z,54.70
2022-10-14T18:36:58.436Z,50.43
2022-10-14T18:39:25.217Z,42.87
2022-10-14T18:41:51.625Z,43.77
2022-10-14T18:44:18.156Z,48.37
2022-10-14T18:46:44.668Z,29.23
2022-10-14T18:49:11.722Z,31.73
2022-10-14T18:51:38.927Z,34.47
2022-10-14T18:54:07.100Z,54.07
2022-10-14T18:56:36.428Z,47.27
2022-10-14T18:59:05.463Z,51.73
2022-10-14T19:01:32.935Z,63.70
2022-10-14T19:03:59.483Z,71.57
2022-10-14T19:06:26.008Z,63.60
2022-10-14T19:08:53.081Z,54.43
2022-10-14T19:11:21.029Z,43.47
2022-10-14T19:13:48.531Z,36.87
2022-10-14T19:16:16.539Z,36.20
2022-10-14T19:18:43.241Z,37.47
2022-10-14T19:21:11.350Z,39.17
2022-10-14T19:23:38.610Z,28.30
2022-10-14T19:26:09.633Z,26.10
2022-10-14T19:28:36.144Z,24.90
2022-10-14T19:31:06.613Z,25.73
2022-10-14T19:33:34.995Z,25.23
2022-10-14T19:36:01.758Z,23.40
2022-10-14T19:38:28.242Z,24.33
2022-10-14T19:40:58.164Z,18.17
2022-10-14T19:43:25.933Z,22.53
2022-10-14T19:45:52.354Z,20.20
2022-10-14T19:48:19.015Z,21.30
2022-10-14T19:50:45.568Z,22.43
2022-10-14T19:53:12.170Z,20.93
2022-10-14T19:55:38.656Z,20.60
2022-10-14T19:58:05.416Z,18.43
2022-10-14T20:00:32.542Z,22.03
2022-10-14T20:02:59.062Z,19.73
2022-10-14T20:05:25.447Z,18.50
2022-10-14T20:07:53.852Z,16.77
2022-10-14T20:10:21.256Z,18.50
2022-10-14T20:12:48.305Z,18.27
2022-10-14T20:15:14.789Z,17.13
2022-10-14T20:17:41.264Z,18.23
2022-10-14T20:20:08.013Z,16.33
2022-10-14T20:22:34.771Z,16.23
2022-10-14T20:25:01.192Z,17.27
2022-10-14T20:27:27.637Z,17.50
2022-10-14T20:29:54.109Z,15.47
2022-10-14T20:32:20.637Z,14.47
2022-10-14T20:34:47.998Z,18.27
2022-10-14T20:37:14.456Z,16.90
2022-10-14T20:39:40.966Z,18.07
2022-10-14T20:42:08.496Z,15.07
2022-10-14T20:44:35.075Z,15.00
2022-10-14T20:47:01.520Z,15.13
2022-10-14T20:49:27.987Z,15.13
2022-10-14T20:51:54.399Z,15.23
2022-10-14T20:54:20.887Z,15.40
2022-10-14T20:56:49.080Z,15.53
2022-10-14T20:59:15.587Z,15.37
2022-10-14T21:01:42.161Z,18.07
2022-10-14T21:04:08.730Z,15.23
2022-10-14T21:06:35.547Z,16.27
2022-10-14T21:09:02.211Z,16.70
2022-10-14T21:11:28.708Z,18.07
2022-10-14T21:13:56.610Z,17.87
2022-10-14T21:16:24.508Z,19.60
2022-10-14T21:18:58.201Z,15.90
2022-10-14T21:21:26.182Z,18.43
2022-10-14T21:23:52.637Z,16.23
2022-10-14T21:26:19.116Z,16.27
2022-10-14T21:28:45.658Z,18.80
2022-10-14T21:31:15.962Z,17.20
2022-10-14T21:33:45.387Z,15.27
2022-10-14T21:36:13.026Z,15.07
2022-10-14T21:38:39.720Z,14.87
2022-10-14T21:41:07.013Z,15.20
2022-10-14T21:43:34.933Z,15.47
2022-10-14T21:46:05.264Z,15.40
2022-10-14T21:48:31.738Z,14.83
2022-10-14T21:51:02.784Z,17.03
2022-10-14T21:53:29.884Z,14.33
2022-10-14T21:55:56.349Z,15.93
2022-10-14T21:58:22.921Z,15.43
2022-10-14T22:00:49.378Z,16.00
2022-10-14T22:03:17.755Z,16.47
2022-10-14T22:05:44.542Z,16.00
2022-10-14T22:08:10.970Z,17.63
2022-10-14T22:10:40.914Z,16.53
2022-10-14T22:13:07.809Z,16.23
2022-10-14T22:15:35.655Z,19.47
2022-10-14T22:18:02.492Z,15.67
2022-10-14T22:20:29.133Z,14.97
2022-10-14T22:22:55.593Z,15.83
2022-10-14T22:25:22.249Z,15.63
2022-10-14T22:27:48.717Z,15.17
2022-10-14T22:30:15.185Z,15.17
2022-10-14T22:32:41.643Z,15.43
2022-10-14T22:35:08.273Z,17.03
2022-10-14T22:37:35.031Z,15.27
2022-10-14T22:40:01.466Z,15.50
2022-10-14T22:44:59.316Z,14.73
2022-10-14T22:47:26.098Z,14.23
2022-10-14T22:49:52.799Z,14.20
2022-10-14T22:52:19.269Z,14.80
2022-10-14T22:54:47.161Z,13.60
2022-10-14T22:57:13.592Z,13.03
2022-10-14T22:59:40.028Z,12.53
2022-10-14T23:02:06.515Z,12.83
2022-10-14T23:04:32.918Z,12.23
2022-10-14T23:07:04.320Z,12.50
2022-10-14T23:11:59.710Z,13.67
2022-10-14T23:14:27.516Z,11.63
2022-10-14T23:16:54.060Z,11.90
2022-10-14T23:19:20.537Z,11.97
2022-10-14T23:21:46.983Z,12.93
2022-10-14T23:24:13.421Z,12.67
2022-10-14T23:26:40.112Z,14.43
2022-10-14T23:29:08.202Z,13.00
2022-10-14T23:31:35.317Z,12.30
2022-10-14T23:34:03.234Z,12.67
2022-10-14T23:36:29.752Z,12.13
2022-10-14T23:38:56.322Z,12.30
2022-10-14T23:41:23.116Z,12.57
2022-10-14T23:43:50.407Z,13.40
2022-10-14T23:46:17.380Z,13.27
2022-10-14T23:48:47.960Z,14.10
2022-10-14T23:51:22.186Z,12.53
2022-10-14T23:53:48.695Z,14.70
2022-10-14T23:56:15.147Z,15.80
2022-10-14T23:58:41.592Z,13.90
